createdAt,value
2017-09-09T00:00:49.377Z,99418.41
2017-09-09T00:02:51.958Z,99417.69
2017-09-09T00:04:54.578Z,99423.42
2017-09-09T00:06:57.199Z,99418.98
2017-09-09T00:08:59.719Z,99411.08
2017-09-09T00:11:02.295Z,99416.02
2017-09-09T00:13:04.813Z,99416.55
2017-09-09T00:15:07.386Z,99408.34
2017-09-09T00:17:09.816Z,99404.33
2017-09-09T00:19:12.341Z,99401.58
2017-09-09T00:21:15.016Z,99400.53
2017-09-09T00:23:17.448Z,99402.21
2017-09-09T00:25:20.006Z,99399.23
2017-09-09T00:27:22.616Z,99402.88
2017-09-09T00:29:25.229Z,99392.42
2017-09-09T00:31:27.681Z,99397.47
2017-09-09T00:33:30.219Z,99390.00
2017-09-09T00:35:32.804Z,99390.66
2017-09-09T00:37:35.341Z,99389.78
2017-09-09T00:39:37.853Z,99387.96
2017-09-09T00:41:40.312Z,99390.98
2017-09-09T00:43:42.824Z,99395.88
2017-09-09T00:45:45.292Z,99392.75
2017-09-09T00:47:47.847Z,99388.02
2017-09-09T00:49:50.451Z,99392.53
2017-09-09T00:51:52.945Z,99386.30
2017-09-09T00:53:55.375Z,99384.59
2017-09-09T00:55:57.883Z,99382.66
2017-09-09T00:58:00.382Z,99376.02
2017-09-09T01:00:02.822Z,99375.19
2017-09-09T01:02:05.367Z,99375.44
2017-09-09T01:04:07.840Z,99369.20
2017-09-09T01:06:10.348Z,99366.86
2017-09-09T01:08:12.802Z,99359.69
2017-09-09T01:10:15.320Z,99360.63
2017-09-09T01:12:17.790Z,99355.85
2017-09-09T01:14:20.292Z,99351.11
2017-09-09T01:16:22.821Z,99355.94
2017-09-09T01:18:25.309Z,99347.17
2017-09-09T01:20:27.817Z,99346.23
2017-09-09T01:22:30.534Z,99345.35
2017-09-09T01:24:32.968Z,99359.27
2017-09-09T01:26:35.460Z,99358.95
2017-09-09T01:28:38.108Z,99356.25
2017-09-09T01:30:40.628Z,99359.53
2017-09-09T01:32:43.122Z,99354.59
2017-09-09T01:34:45.756Z,99347.25
2017-09-09T01:36:48.236Z,99349.91
2017-09-09T01:38:50.815Z,99352.87
2017-09-09T01:40:53.294Z,99347.09
2017-09-09T01:42:55.732Z,99346.13
2017-09-09T01:44:58.168Z,99344.77
2017-09-09T01:47:00.688Z,99340.72
2017-09-09T01:49:03.179Z,99339.61
2017-09-09T01:51:05.612Z,99333.38
2017-09-09T01:53:08.264Z,99324.86
2017-09-09T01:55:10.748Z,99319.03
2017-09-09T01:57:13.258Z,99324.44
2017-09-09T01:59:15.785Z,99323.09
2017-09-09T02:01:18.293Z,99321.38
2017-09-09T02:03:20.761Z,99318.56
2017-09-09T02:05:23.404Z,99310.77
2017-09-09T02:07:25.905Z,99300.48
2017-09-09T02:09:28.373Z,99306.82
2017-09-09T02:11:31.156Z,99304.53
2017-09-09T02:13:33.697Z,99305.31
2017-09-09T02:15:36.232Z,99305.47
2017-09-09T02:17:38.735Z,99292.42
2017-09-09T02:19:41.269Z,99290.36
2017-09-09T02:21:43.800Z,99291.60
2017-09-09T02:23:46.592Z,99290.44
2017-09-09T02:25:49.164Z,99287.44
2017-09-09T02:27:51.780Z,99283.13
2017-09-09T02:29:54.248Z,99282.08
2017-09-09T02:31:56.675Z,99273.40
2017-09-09T02:33:59.249Z,99271.74
2017-09-09T02:36:01.781Z,99272.88
2017-09-09T02:38:04.217Z,99275.02
2017-09-09T02:40:06.664Z,99267.85
2017-09-09T02:42:09.275Z,99270.50
2017-09-09T02:44:11.753Z,99261.82
2017-09-09T02:46:14.251Z,99259.75
2017-09-09T02:48:16.858Z,99257.83
2017-09-09T02:50:19.373Z,99257.94
2017-09-09T02:52:21.826Z,99248.89
2017-09-09T02:54:24.514Z,99249.25
2017-09-09T02:56:27.008Z,99239.02
2017-09-09T02:58:29.556Z,99240.48
2017-09-09T03:00:32.232Z,99245.41
2017-09-09T03:02:34.694Z,99246.23
2017-09-09T03:04:37.257Z,99245.49
2017-09-09T03:06:39.841Z,99242.02
2017-09-09T03:08:42.369Z,99233.44
2017-09-09T03:10:44.798Z,99233.87
2017-09-09T03:12:47.545Z,99232.02
2017-09-09T03:14:49.982Z,99226.16
2017-09-09T03:16:52.460Z,99217.84
2017-09-09T03:18:54.981Z,99219.52
2017-09-09T03:20:57.407Z,99215.05
2017-09-09T03:22:59.853Z,99209.55
2017-09-09T03:25:02.674Z,99214.89
2017-09-09T03:27:05.115Z,99210.13
2017-09-09T03:29:07.621Z,99194.03
2017-09-09T03:31:10.115Z,99200.04
2017-09-09T03:33:12.720Z,99205.66
2017-09-09T03:35:15.290Z,99204.95
2017-09-09T03:37:17.884Z,99205.48
2017-09-09T03:39:20.478Z,99198.62
2017-09-09T03:41:22.978Z,99199.55
2017-09-09T03:43:25.448Z,99199.08
2017-09-09T03:45:27.912Z,99196.91
2017-09-09T03:47:30.354Z,99197.27
2017-09-09T03:49:32.896Z,99197.08
2017-09-09T03:51:35.411Z,99200.80
2017-09-09T03:53:37.898Z,99189.11
2017-09-09T03:55:40.513Z,99197.68
2017-09-09T03:57:43.080Z,99186.92
2017-09-09T03:59:45.513Z,99189.86
2017-09-09T04:01:48.158Z,99183.11
2017-09-09T04:03:50.600Z,99177.82
2017-09-09T04:05:53.130Z,99174.53
2017-09-09T04:07:55.636Z,99181.59
2017-09-09T04:09:58.505Z,99173.84
2017-09-09T04:12:00.991Z,99172.30
2017-09-09T04:14:03.473Z,99166.95
2017-09-09T04:16:05.937Z,99164.56
2017-09-09T04:18:08.600Z,99164.89
2017-09-09T04:20:11.155Z,99158.73
2017-09-09T04:22:13.632Z,99166.15
2017-09-09T04:24:16.084Z,99161.54
2017-09-09T04:26:18.612Z,99167.25
2017-09-09T04:28:21.088Z,99164.38
2017-09-09T04:30:23.569Z,99164.80
2017-09-09T04:32:26.201Z,99170.20
2017-09-09T04:34:28.643Z,99172.13
2017-09-09T04:36:31.079Z,99175.59
2017-09-09T04:38:33.563Z,99171.28
2017-09-09T04:40:36.024Z,99174.12
2017-09-09T04:42:38.489Z,99171.23
2017-09-09T04:44:41.157Z,99172.84
2017-09-09T04:46:43.691Z,99183.39
2017-09-09T04:48:46.125Z,99173.42
2017-09-09T04:50:48.636Z,99174.77
2017-09-09T04:52:51.153Z,99169.58
2017-09-09T04:54:53.619Z,99171.84
2017-09-09T04:56:56.086Z,99174.81
2017-09-09T04:58:58.595Z,99172.22
2017-09-09T05:01:01.023Z,99178.45
2017-09-09T05:03:03.596Z,99172.30
2017-09-09T05:05:06.214Z,99172.00
2017-09-09T05:07:08.653Z,99178.98
2017-09-09T05:09:11.121Z,99176.83
2017-09-09T05:11:13.599Z,99167.59
2017-09-09T05:13:16.109Z,99174.78
2017-09-09T05:15:18.637Z,99183.10
2017-09-09T05:17:21.214Z,99169.90
2017-09-09T05:19:23.917Z,99170.84
2017-09-09T05:21:26.415Z,99173.89
2017-09-09T05:23:28.851Z,99178.05
2017-09-09T05:25:31.410Z,99181.48
2017-09-09T05:27:34.349Z,99178.06
2017-09-09T05:29:36.785Z,99180.30
2017-09-09T05:31:39.313Z,99174.84
2017-09-09T05:33:41.787Z,99178.64
2017-09-09T05:35:44.304Z,99185.92
2017-09-09T05:37:46.815Z,99186.74
2017-09-09T05:39:49.322Z,99186.74
2017-09-09T05:41:51.831Z,99187.41
2017-09-09T05:43:54.265Z,99192.87
2017-09-09T05:45:56.720Z,99193.80
2017-09-09T05:47:59.344Z,99193.91
2017-09-09T05:50:01.866Z,99188.62
2017-09-09T05:52:04.512Z,99186.22
2017-09-09T05:54:06.961Z,99180.81
2017-09-09T05:56:09.482Z,99177.87
2017-09-09T05:58:12.018Z,99175.94
2017-09-09T06:00:14.534Z,99174.08
2017-09-09T06:02:17.109Z,99173.91
2017-09-09T06:04:19.655Z,99174.95
2017-09-09T06:06:22.088Z,99178.70
2017-09-09T06:08:24.647Z,99175.23
2017-09-09T06:10:27.176Z,99178.89
2017-09-09T06:12:29.630Z,99178.37
2017-09-09T06:14:32.071Z,99180.58
2017-09-09T06:16:34.776Z,99179.11
2017-09-09T06:18:37.237Z,99184.87
2017-09-09T06:20:39.798Z,99181.75
2017-09-09T06:22:42.279Z,99196.28
2017-09-09T06:24:44.726Z,99188.88
2017-09-09T06:26:47.270Z,99186.12
2017-09-09T06:28:50.084Z,99180.94
2017-09-09T06:30:52.552Z,99179.83
2017-09-09T06:32:54.987Z,99175.06
2017-09-09T06:34:57.487Z,99170.58
2017-09-09T06:36:59.916Z,99173.38
2017-09-09T06:39:02.378Z,99171.88
2017-09-09T06:41:04.899Z,99175.52
2017-09-09T06:43:07.471Z,99177.28
2017-09-09T06:45:10.040Z,99167.37
2017-09-09T06:47:12.720Z,99177.66
2017-09-09T06:49:15.153Z,99174.88
2017-09-09T06:51:17.745Z,99169.67
2017-09-09T06:53:20.337Z,99165.14
2017-09-09T06:55:22.906Z,99164.51
2017-09-09T06:57:25.370Z,99164.59
2017-09-09T06:59:27.846Z,99172.70
2017-09-09T07:01:30.329Z,99172.45
2017-09-09T07:03:32.787Z,99170.00
2017-09-09T07:05:35.284Z,99167.57
2017-09-09T07:07:37.860Z,99169.59
2017-09-09T07:09:40.363Z,99178.19
2017-09-09T07:11:42.885Z,99174.62
2017-09-09T07:13:45.448Z,99171.73
2017-09-09T07:15:47.889Z,99176.73
2017-09-09T07:17:50.471Z,99175.31
2017-09-09T07:19:52.960Z,99186.55
2017-09-09T07:21:55.532Z,99188.20
2017-09-09T07:23:58.050Z,99188.43
2017-09-09T07:26:00.516Z,99185.37
2017-09-09T07:28:02.951Z,99197.27
2017-09-09T07:30:06.141Z,99192.64
2017-09-09T07:32:08.634Z,99194.40
2017-09-09T07:34:11.174Z,99195.84
2017-09-09T07:36:13.648Z,99193.30
2017-09-09T07:38:16.150Z,99193.77
2017-09-09T07:40:18.596Z,99199.75
2017-09-09T07:42:21.085Z,99198.36
2017-09-09T07:44:23.624Z,99208.23
2017-09-09T07:46:26.147Z,99210.21
2017-09-09T07:48:28.642Z,99220.66
2017-09-09T07:50:31.116Z,99223.77
2017-09-09T07:52:33.606Z,99219.03
2017-09-09T07:54:36.101Z,99227.94
2017-09-09T07:56:38.658Z,99229.34
2017-09-09T07:58:41.189Z,99233.20
2017-09-09T08:00:43.692Z,99232.97
2017-09-09T08:02:46.368Z,99230.47
2017-09-09T08:04:48.836Z,99235.33
2017-09-09T08:06:51.342Z,99234.80
2017-09-09T08:08:53.845Z,99238.13
2017-09-09T08:10:56.377Z,99240.56
2017-09-09T08:12:58.862Z,99250.53
2017-09-09T08:15:01.397Z,99253.18
2017-09-09T08:17:03.903Z,99253.90
2017-09-09T08:19:06.384Z,99249.52
2017-09-09T08:21:08.818Z,99253.66
2017-09-09T08:23:11.257Z,99254.17
2017-09-09T08:25:13.724Z,99266.05
2017-09-09T08:27:16.188Z,99268.92
2017-09-09T08:29:18.611Z,99261.13
2017-09-09T08:31:21.357Z,99270.88
2017-09-09T08:33:23.937Z,99273.86
2017-09-09T08:35:26.507Z,99282.38
2017-09-09T08:37:29.180Z,99286.89
2017-09-09T08:39:31.712Z,99288.83
2017-09-09T08:41:34.147Z,99294.75
2017-09-09T08:43:37.328Z,99297.18
2017-09-09T08:45:39.880Z,99299.58
2017-09-09T08:47:42.357Z,99304.09
2017-09-09T08:49:45.111Z,99309.39
2017-09-09T08:51:47.636Z,99312.67
2017-09-09T08:53:50.070Z,99316.09
2017-09-09T08:55:52.569Z,99321.69
2017-09-09T08:57:55.046Z,99323.63
2017-09-09T08:59:57.531Z,99325.27
2017-09-09T09:01:59.984Z,99332.97
2017-09-09T09:04:02.444Z,99336.19
2017-09-09T09:06:04.989Z,99340.03
2017-09-09T09:08:07.498Z,99343.31
2017-09-09T09:10:09.941Z,99341.27
2017-09-09T09:12:12.395Z,99343.61
2017-09-09T09:14:15.107Z,99340.91
2017-09-09T09:16:17.575Z,99347.72
2017-09-09T09:18:20.062Z,99357.64
2017-09-09T09:20:22.524Z,99355.66
2017-09-09T09:22:25.059Z,99348.84
2017-09-09T09:24:27.552Z,99348.20
2017-09-09T09:26:30.025Z,99343.91
2017-09-09T09:28:32.507Z,99343.48
2017-09-09T09:30:34.956Z,99347.84
2017-09-09T09:32:37.657Z,99350.91
2017-09-09T09:34:40.124Z,99343.25
2017-09-09T09:36:42.573Z,99343.55
2017-09-09T09:38:45.230Z,99342.97
2017-09-09T09:40:47.672Z,99348.95
2017-09-09T09:42:50.154Z,99347.71
2017-09-09T09:44:52.641Z,99340.86
2017-09-09T09:46:55.175Z,99339.45
2017-09-09T09:48:57.613Z,99346.72
2017-09-09T09:51:00.186Z,99352.48
2017-09-09T09:53:02.728Z,99351.73
2017-09-09T09:55:05.293Z,99357.36
2017-09-09T09:57:07.792Z,99363.23
2017-09-09T09:59:10.237Z,99359.64
2017-09-09T10:01:12.701Z,99366.06
2017-09-09T10:03:15.270Z,99361.20
2017-09-09T10:05:17.969Z,99358.30
2017-09-09T10:07:20.632Z,99366.19
2017-09-09T10:09:23.085Z,99369.05
2017-09-09T10:11:25.693Z,99370.92
2017-09-09T10:13:28.202Z,99367.31
2017-09-09T10:15:30.756Z,99367.50
2017-09-09T10:17:33.369Z,99368.77
2017-09-09T10:19:35.801Z,99373.31
2017-09-09T10:21:38.294Z,99374.60
2017-09-09T10:23:40.888Z,99381.36
2017-09-09T10:25:43.321Z,99375.70
2017-09-09T10:27:45.835Z,99381.42
2017-09-09T10:29:48.420Z,99390.23
2017-09-09T10:31:50.892Z,99390.12
2017-09-09T10:33:53.588Z,99391.41
2017-09-09T10:35:56.031Z,99388.05
2017-09-09T10:37:58.481Z,99397.70
2017-09-09T10:40:01.077Z,99411.14
2017-09-09T10:42:03.507Z,99404.08
2017-09-09T10:44:05.976Z,99414.73
2017-09-09T10:46:08.463Z,99417.31
2017-09-09T10:48:10.946Z,99410.83
2017-09-09T10:50:13.636Z,99401.53
2017-09-09T10:52:16.262Z,99401.78
2017-09-09T10:54:18.712Z,99392.06
2017-09-09T10:56:21.245Z,99394.83
2017-09-09T10:58:23.820Z,99402.72
2017-09-09T11:00:26.345Z,99403.96
2017-09-09T11:02:28.807Z,99409.48
2017-09-09T11:04:31.338Z,99414.89
2017-09-09T11:06:33.784Z,99402.86
2017-09-09T11:08:36.502Z,99400.88
2017-09-09T11:10:39.051Z,99397.45
2017-09-09T11:12:41.544Z,99400.56
2017-09-09T11:14:43.985Z,99399.16
2017-09-09T11:16:46.479Z,99401.17
2017-09-09T11:18:49.032Z,99401.28
2017-09-09T11:20:51.481Z,99400.23
2017-09-09T11:22:53.982Z,99397.70
2017-09-09T11:24:56.545Z,99406.23
2017-09-09T11:26:59.060Z,99408.58
2017-09-09T11:29:01.569Z,99404.88
2017-09-09T11:31:04.026Z,99402.23
2017-09-09T11:33:06.514Z,99406.39
2017-09-09T11:35:09.127Z,99406.55
2017-09-09T11:37:11.560Z,99408.11
2017-09-09T11:39:14.050Z,99411.74
2017-09-09T11:41:16.620Z,99402.55
2017-09-09T11:43:19.168Z,99397.56
2017-09-09T11:45:21.658Z,99403.44
2017-09-09T11:47:24.221Z,99404.73
2017-09-09T11:49:26.671Z,99402.23
2017-09-09T11:51:29.169Z,99408.58
2017-09-09T11:53:31.743Z,99409.04
2017-09-09T11:55:34.213Z,99409.51
2017-09-09T11:57:36.848Z,99409.45
2017-09-09T11:59:39.396Z,99414.03
2017-09-09T12:01:41.932Z,99419.63
2017-09-09T12:03:44.466Z,99424.19
2017-09-09T12:05:47.105Z,99422.92
2017-09-09T12:07:49.672Z,99430.31
2017-09-09T12:09:52.106Z,99431.25
2017-09-09T12:11:54.737Z,99428.38
2017-09-09T12:13:57.264Z,99436.61
2017-09-09T12:15:59.713Z,99432.30
2017-09-09T12:18:02.261Z,99446.32
2017-09-09T12:20:04.714Z,99444.08
2017-09-09T12:22:07.181Z,99442.95
2017-09-09T12:24:09.698Z,99452.47
2017-09-09T12:26:12.201Z,99448.23
2017-09-09T12:28:14.764Z,99453.58
2017-09-09T12:30:17.375Z,99451.06
2017-09-09T12:32:19.925Z,99445.41
2017-09-09T12:34:22.480Z,99450.30
2017-09-09T12:36:25.069Z,99454.71
2017-09-09T12:38:27.516Z,99448.42
2017-09-09T12:40:29.972Z,99452.00
2017-09-09T12:42:32.635Z,99444.80
2017-09-09T12:44:35.243Z,99455.84
2017-09-09T12:46:37.772Z,99451.01
2017-09-09T12:48:40.322Z,99446.54
2017-09-09T12:50:42.774Z,99442.48
2017-09-09T12:52:45.229Z,99441.71
2017-09-09T12:54:47.815Z,99455.04
2017-09-09T12:56:50.372Z,99456.75
2017-09-09T12:58:52.879Z,99451.87
2017-09-09T13:00:55.660Z,99459.71
2017-09-09T13:02:58.174Z,99454.10
2017-09-09T13:05:00.735Z,99456.53
2017-09-09T13:07:03.402Z,99463.05
2017-09-09T13:09:05.905Z,99465.75
2017-09-09T13:11:08.634Z,99469.53
2017-09-09T13:13:11.357Z,99463.35
2017-09-09T13:15:13.922Z,99460.34
2017-09-09T13:17:16.364Z,99463.23
2017-09-09T13:19:18.931Z,99460.34
2017-09-09T13:21:21.392Z,99455.70
2017-09-09T13:23:23.819Z,99446.92
2017-09-09T13:25:26.383Z,99452.00
2017-09-09T13:27:28.887Z,99456.17
2017-09-09T13:29:31.366Z,99455.29
2017-09-09T13:31:33.832Z,99455.29
2017-09-09T13:33:36.474Z,99457.52
2017-09-09T13:35:39.046Z,99463.70
2017-09-09T13:37:41.852Z,99478.36
2017-09-09T13:39:44.363Z,99480.76
2017-09-09T13:41:46.864Z,99488.23
2017-09-09T13:43:50.004Z,99488.70
2017-09-09T13:45:52.484Z,99492.09
2017-09-09T13:47:54.956Z,99487.82
2017-09-09T13:49:58.831Z,99495.63
2017-09-09T13:52:01.464Z,99483.10
2017-09-09T13:54:04.036Z,99493.17
2017-09-09T13:56:06.780Z,99487.05
2017-09-09T13:58:09.220Z,99495.36
2017-09-09T14:00:11.754Z,99490.89
2017-09-09T14:02:14.233Z,99492.02
2017-09-09T14:04:16.900Z,99485.67
2017-09-09T14:06:19.352Z,99490.04
2017-09-09T14:08:21.975Z,99488.16
2017-09-09T14:10:24.560Z,99482.28
2017-09-09T14:12:27.022Z,99484.27
2017-09-09T14:14:29.592Z,99477.45
2017-09-09T14:16:32.064Z,99480.63
2017-09-09T14:18:34.540Z,99486.92
2017-09-09T14:20:37.078Z,99484.38
2017-09-09T14:22:39.552Z,99486.28
2017-09-09T14:24:42.087Z,99488.99
2017-09-09T14:26:44.725Z,99484.22
2017-09-09T14:28:47.245Z,99483.03
2017-09-09T14:30:51.207Z,99485.67
2017-09-09T14:32:53.685Z,99486.22
2017-09-09T14:34:56.173Z,99483.86
2017-09-09T14:36:58.616Z,99482.03
2017-09-09T14:39:01.259Z,99484.11
2017-09-09T14:41:03.743Z,99482.03
2017-09-09T14:43:06.219Z,99480.52
2017-09-09T14:45:08.678Z,99480.88
2017-09-09T14:47:11.157Z,99477.45
2017-09-09T14:49:13.673Z,99480.22
2017-09-09T14:51:16.257Z,99482.34
2017-09-09T14:53:18.783Z,99481.45
2017-09-09T14:55:21.287Z,99483.86
2017-09-09T14:57:23.776Z,99482.09
2017-09-09T14:59:26.500Z,99493.27
2017-09-09T15:01:29.011Z,99494.28
2017-09-09T15:03:31.528Z,99495.00
2017-09-09T15:05:34.181Z,99500.69
2017-09-09T15:07:36.707Z,99495.22
2017-09-09T15:09:39.224Z,99491.14
2017-09-09T15:11:41.655Z,99499.92
2017-09-09T15:13:44.267Z,99498.56
2017-09-09T15:15:46.813Z,99495.75
2017-09-09T15:17:49.243Z,99502.34
2017-09-09T15:19:51.708Z,99501.41
2017-09-09T15:21:54.222Z,99495.11
2017-09-09T15:23:56.699Z,99505.67
2017-09-09T15:25:59.228Z,99504.05
2017-09-09T15:28:01.732Z,99510.44
2017-09-09T15:30:04.260Z,99513.37
2017-09-09T15:32:06.699Z,99515.66
2017-09-09T15:34:09.320Z,99528.20
2017-09-09T15:36:11.786Z,99527.67
2017-09-09T15:38:14.250Z,99539.52
2017-09-09T15:40:17.138Z,99544.78
2017-09-09T15:42:19.602Z,99572.13
2017-09-09T15:44:22.044Z,99569.88
2017-09-09T15:46:24.609Z,99571.38
2017-09-09T15:48:27.046Z,99578.69
2017-09-09T15:50:29.482Z,99575.20
2017-09-09T15:52:32.032Z,99573.41
2017-09-09T15:54:34.574Z,99585.31
2017-09-09T15:56:37.064Z,99590.94
2017-09-09T15:58:39.633Z,99586.59
2017-09-09T16:00:42.170Z,99588.72
2017-09-09T16:02:44.779Z,99595.89
2017-09-09T16:04:47.587Z,99590.23
2017-09-09T16:06:50.130Z,99591.83
2017-09-09T16:08:52.606Z,99597.20
2017-09-09T16:10:55.120Z,99590.92
2017-09-09T16:12:57.618Z,99580.88
2017-09-09T16:15:00.166Z,99587.38
2017-09-09T16:17:02.625Z,99585.35
2017-09-09T16:19:05.096Z,99596.63
2017-09-09T16:21:07.580Z,99587.47
2017-09-09T16:23:10.179Z,99584.41
2017-09-09T16:25:12.650Z,99589.76
2017-09-09T16:27:15.133Z,99590.70
2017-09-09T16:29:17.756Z,99591.00
2017-09-09T16:31:20.228Z,99589.23
2017-09-09T16:33:22.688Z,99594.64
2017-09-09T16:35:25.213Z,99592.11
2017-09-09T16:37:27.689Z,99589.66
2017-09-09T16:39:30.182Z,99591.53
2017-09-09T16:41:33.085Z,99587.95
2017-09-09T16:43:35.532Z,99590.85
2017-09-09T16:45:37.991Z,99590.72
2017-09-09T16:47:40.599Z,99599.48
2017-09-09T16:49:43.132Z,99603.94
2017-09-09T16:51:45.581Z,99605.45
2017-09-09T16:53:48.079Z,99608.27
2017-09-09T16:55:50.549Z,99616.80
2017-09-09T16:57:53.004Z,99610.65
2017-09-09T16:59:55.624Z,99609.82
2017-09-09T17:01:58.154Z,99619.08
2017-09-09T17:04:00.603Z,99612.25
2017-09-09T17:06:03.134Z,99618.49
2017-09-09T17:08:05.612Z,99616.20
2017-09-09T17:10:08.074Z,99615.17
2017-09-09T17:12:10.825Z,99607.89
2017-09-09T17:14:13.284Z,99608.72
2017-09-09T17:16:15.726Z,99612.56
2017-09-09T17:18:18.484Z,99608.72
2017-09-09T17:20:21.111Z,99622.28
2017-09-09T17:22:23.580Z,99621.76
2017-09-09T17:24:26.144Z,99627.69
2017-09-09T17:26:28.653Z,99632.40
2017-09-09T17:28:31.103Z,99628.10
2017-09-09T17:30:33.751Z,99637.80
2017-09-09T17:32:36.236Z,99647.27
2017-09-09T17:34:38.753Z,99636.25
2017-09-09T17:36:41.198Z,99637.25
2017-09-09T17:38:43.648Z,99634.48
2017-09-09T17:40:46.124Z,99642.48
2017-09-09T17:42:49.488Z,99634.48
2017-09-09T17:44:52.033Z,99635.14
2017-09-09T17:46:54.586Z,99640.55
2017-09-09T17:48:57.229Z,99639.20
2017-09-09T17:50:59.662Z,99637.53
2017-09-09T17:53:02.161Z,99634.77
2017-09-09T17:55:04.693Z,99637.75
2017-09-09T17:57:07.152Z,99635.77
2017-09-09T17:59:09.701Z,99642.94
2017-09-09T18:01:12.193Z,99642.52
2017-09-09T18:03:14.686Z,99645.16
2017-09-09T18:05:17.153Z,99646.30
2017-09-09T18:07:19.666Z,99649.25
2017-09-09T18:09:22.174Z,99651.09
2017-09-09T18:11:24.610Z,99653.58
2017-09-09T18:13:27.349Z,99658.05
2017-09-09T18:15:29.890Z,99660.48
2017-09-09T18:17:32.399Z,99661.62
2017-09-09T18:19:35.037Z,99660.69
2017-09-09T18:21:37.493Z,99663.84
2017-09-09T18:23:40.038Z,99665.61
2017-09-09T18:25:42.549Z,99672.05
2017-09-09T18:27:45.085Z,99663.95
2017-09-09T18:29:47.595Z,99673.20
2017-09-09T18:31:50.180Z,99676.31
2017-09-09T18:33:52.644Z,99676.52
2017-09-09T18:35:55.106Z,99682.94
2017-09-09T18:37:57.633Z,99686.33
2017-09-09T18:40:00.064Z,99693.47
2017-09-09T18:42:02.609Z,99695.23
2017-09-09T18:44:06.758Z,99694.47
2017-09-09T18:46:09.358Z,99688.58
2017-09-09T18:48:13.111Z,99688.27
2017-09-09T18:50:15.838Z,99691.70
2017-09-09T18:52:18.414Z,99695.51
2017-09-09T18:54:20.859Z,99700.73
2017-09-09T18:56:23.553Z,99706.14
2017-09-09T18:58:26.121Z,99710.20
2017-09-09T19:00:28.640Z,99717.05
2017-09-09T19:02:31.128Z,99717.92
2017-09-09T19:04:33.561Z,99720.00
2017-09-09T19:06:36.028Z,99727.55
2017-09-09T19:08:38.575Z,99725.27
2017-09-09T19:10:41.019Z,99731.84
2017-09-09T19:12:43.475Z,99729.98
2017-09-09T19:14:45.981Z,99728.31
2017-09-09T19:16:48.663Z,99739.23
2017-09-09T19:18:51.164Z,99735.48
2017-09-09T19:20:53.707Z,99739.23
2017-09-09T19:22:56.142Z,99740.81
2017-09-09T19:24:58.644Z,99739.23
2017-09-09T19:27:01.172Z,99744.63
2017-09-09T19:29:03.692Z,99747.67
2017-09-09T19:31:06.236Z,99748.92
2017-09-09T19:33:08.753Z,99751.28
2017-09-09T19:35:11.213Z,99751.39
2017-09-09T19:37:13.716Z,99754.33
2017-09-09T19:39:16.227Z,99753.29
2017-09-09T19:41:18.713Z,99756.95
2017-09-09T19:43:21.219Z,99755.05
2017-09-09T19:45:23.892Z,99755.63
2017-09-09T19:47:26.328Z,99760.62
2017-09-09T19:49:28.788Z,99765.27
2017-09-09T19:51:31.404Z,99767.97
2017-09-09T19:53:34.028Z,99770.78
2017-09-09T19:55:36.510Z,99771.02
2017-09-09T19:57:39.011Z,99771.43
2017-09-09T19:59:41.474Z,99766.55
2017-09-09T20:01:43.921Z,99768.34
2017-09-09T20:03:47.395Z,99774.34
2017-09-09T20:05:49.896Z,99777.28
2017-09-09T20:07:52.441Z,99774.96
2017-09-09T20:09:54.977Z,99776.73
2017-09-09T20:11:57.446Z,99782.38
2017-09-09T20:13:59.888Z,99778.91
2017-09-09T20:16:02.339Z,99778.63
2017-09-09T20:18:04.866Z,99779.98
2017-09-09T20:20:07.408Z,99779.25
2017-09-09T20:22:09.917Z,99780.67
2017-09-09T20:24:12.515Z,99783.72
2017-09-09T20:26:14.996Z,99781.85
2017-09-09T20:28:17.632Z,99782.13
2017-09-09T20:30:20.072Z,99785.25
2017-09-09T20:32:22.521Z,99791.72
2017-09-09T20:34:25.037Z,99791.48
2017-09-09T20:36:27.570Z,99793.08
2017-09-09T20:38:30.205Z,99795.95
2017-09-09T20:40:32.809Z,99798.05
2017-09-09T20:42:35.329Z,99802.80
2017-09-09T20:44:37.876Z,99809.45
2017-09-09T20:46:40.539Z,99804.68
2017-09-09T20:48:42.987Z,99808.45
2017-09-09T20:50:45.418Z,99804.30
2017-09-09T20:52:47.910Z,99811.15
2017-09-09T20:54:50.406Z,99811.43
2017-09-09T20:56:52.874Z,99810.73
2017-09-09T20:58:55.448Z,99810.63
2017-09-09T21:00:57.876Z,99803.87
2017-09-09T21:03:00.390Z,99810.52
2017-09-09T21:05:02.924Z,99815.30
2017-09-09T21:07:05.368Z,99814.47
2017-09-09T21:09:07.852Z,99818.63
2017-09-09T21:11:10.381Z,99813.22
2017-09-09T21:13:12.815Z,99822.39
2017-09-09T21:15:15.266Z,99822.59
2017-09-09T21:17:17.831Z,99821.66
2017-09-09T21:19:20.354Z,99825.37
2017-09-09T21:21:22.819Z,99826.73
2017-09-09T21:23:25.431Z,99827.36
2017-09-09T21:25:28.097Z,99832.97
2017-09-09T21:27:30.596Z,99840.14
2017-09-09T21:29:33.160Z,99837.53
2017-09-09T21:31:35.633Z,99834.05
2017-09-09T21:33:38.154Z,99836.42
2017-09-09T21:35:40.689Z,99842.94
2017-09-09T21:37:43.196Z,99842.34
2017-09-09T21:39:45.771Z,99843.69
2017-09-09T21:41:48.446Z,99839.25
2017-09-09T21:43:50.922Z,99842.27
2017-09-09T21:45:53.564Z,99847.33
2017-09-09T21:47:56.309Z,99846.23
2017-09-09T21:49:58.839Z,99846.52
2017-09-09T21:52:01.265Z,99850.41
2017-09-09T21:54:03.767Z,99849.78
2017-09-09T21:56:06.217Z,99851.27
2017-09-09T21:58:08.667Z,99849.27
2017-09-09T22:00:11.133Z,99852.90
2017-09-09T22:02:13.660Z,99847.00
2017-09-09T22:04:16.130Z,99851.16
2017-09-09T22:06:18.665Z,99855.42
2017-09-09T22:08:21.155Z,99860.28
2017-09-09T22:10:23.646Z,99857.69
2017-09-09T22:12:26.140Z,99863.19
2017-09-09T22:14:28.586Z,99861.73
2017-09-09T22:16:31.016Z,99862.56
2017-09-09T22:18:33.523Z,99872.95
2017-09-09T22:20:36.036Z,99872.14
2017-09-09T22:22:38.505Z,99869.44
2017-09-09T22:24:41.242Z,99873.16
2017-09-09T22:26:44.692Z,99875.58
2017-09-09T22:28:47.368Z,99878.95
2017-09-09T22:30:49.913Z,99875.66
2017-09-09T22:32:52.454Z,99876.69
2017-09-09T22:34:54.894Z,99874.84
2017-09-09T22:36:57.368Z,99879.85
2017-09-09T22:38:59.893Z,99885.67
2017-09-09T22:41:02.400Z,99886.28
2017-09-09T22:43:04.986Z,99882.56
2017-09-09T22:45:07.426Z,99882.63
2017-09-09T22:47:09.866Z,99883.56
2017-09-09T22:49:12.676Z,99883.70
2017-09-09T22:51:16.227Z,99885.73
2017-09-09T22:53:18.805Z,99884.28
2017-09-09T22:55:21.303Z,99887.08
2017-09-09T22:57:23.768Z,99885.73
2017-09-09T22:59:26.244Z,99891.94
2017-09-09T23:01:28.829Z,99891.96
2017-09-09T23:03:31.271Z,99894.66
2017-09-09T23:05:33.712Z,99896.02
2017-09-09T23:07:36.292Z,99886.98
2017-09-09T23:09:38.759Z,99885.11
2017-09-09T23:11:41.191Z,99889.80
2017-09-09T23:13:43.652Z,99890.53
2017-09-09T23:15:46.101Z,99890.43
2017-09-09T23:17:48.528Z,99885.13
2017-09-09T23:19:51.150Z,99888.53
2017-09-09T23:21:53.618Z,99886.37
2017-09-09T23:23:56.076Z,99879.08
2017-09-09T23:25:59.135Z,99876.59
2017-09-09T23:28:01.708Z,99879.61
2017-09-09T23:30:04.176Z,99871.19
2017-09-09T23:32:06.712Z,99879.49
2017-09-09T23:34:09.220Z,99878.89
2017-09-09T23:36:11.658Z,99884.89
2017-09-09T23:38:14.168Z,99880.23
2017-09-09T23:40:16.629Z,99881.39
2017-09-09T23:42:19.207Z,99886.25
2017-09-09T23:44:21.750Z,99890.30
2017-09-09T23:46:24.226Z,99893.23
2017-09-09T23:48:26.664Z,99889.28
2017-09-09T23:50:29.436Z,99890.63
2017-09-09T23:52:31.902Z,99890.95
2017-09-09T23:54:34.340Z,99892.60
2017-09-09T23:56:36.880Z,99891.06
2017-09-09T23:58:39.323Z,99890.86
